createdAt,value
2022-10-11T00:00:54.699Z,19.00
2022-10-11T00:03:34.888Z,19.00
2022-10-11T00:06:17.465Z,18.40
2022-10-11T00:08:46.349Z,12.80
2022-10-11T00:11:28.848Z,18.60
2022-10-11T00:13:57.791Z,22.60
2022-10-11T00:16:26.840Z,16.10
2022-10-11T00:18:55.951Z,15.70
2022-10-11T00:21:25.425Z,15.40
2022-10-11T00:24:08.022Z,25.00
2022-10-11T00:26:36.782Z,24.20
2022-10-11T00:29:06.311Z,20.10
2022-10-11T00:31:35.934Z,19.20
2022-10-11T00:34:06.054Z,20.70
2022-10-11T00:36:35.020Z,17.70
2022-10-11T00:39:05.283Z,15.00
2022-10-11T00:41:34.292Z,27.10
2022-10-11T00:44:25.905Z,16.20
2022-10-11T00:47:12.941Z,19.60
2022-10-11T00:50:01.699Z,16.10
2022-10-11T00:52:35.552Z,19.80
2022-10-11T00:55:15.293Z,18.10
2022-10-11T00:57:59.198Z,25.50
2022-10-11T01:00:41.699Z,19.90
2022-10-11T01:03:27.494Z,18.80
2022-10-11T01:05:57.720Z,13.30
2022-10-11T01:08:40.138Z,25.10
2022-10-11T01:11:15.173Z,17.50
2022-10-11T01:14:03.145Z,17.40
2022-10-11T01:17:03.703Z,19.90
2022-10-11T01:20:23.961Z,14.00
2022-10-11T01:23:27.252Z,27.40
2022-10-11T01:26:27.000Z,16.10
2022-10-11T01:29:50.145Z,22.20
2022-10-11T01:32:33.596Z,18.00
2022-10-11T01:35:40.215Z,21.50
2022-10-11T01:39:17.143Z,20.80
2022-10-11T01:41:56.563Z,25.20
2022-10-11T01:44:41.813Z,19.70
2022-10-11T01:47:25.561Z,18.50
2022-10-11T01:50:47.264Z,21.90
2022-10-11T01:53:39.093Z,24.10
2022-10-11T01:56:40.451Z,23.00
2022-10-11T01:59:29.708Z,21.10
2022-10-11T02:02:23.638Z,23.00
2022-10-11T02:05:38.349Z,18.90
2022-10-11T02:08:45.511Z,18.10
2022-10-11T02:11:34.720Z,24.80
2022-10-11T02:14:11.917Z,29.70
2022-10-11T02:16:54.791Z,24.90
2022-10-11T02:19:48.573Z,15.40
2022-10-11T02:22:37.426Z,25.40
2022-10-11T02:25:10.946Z,21.10
2022-10-11T02:27:43.989Z,20.80
2022-10-11T02:30:26.607Z,20.90
2022-10-11T02:32:57.992Z,35.80
2022-10-11T02:35:30.229Z,25.10
2022-10-11T02:38:31.635Z,19.40
2022-10-11T02:41:27.744Z,19.10
2022-10-11T02:44:16.223Z,26.60
2022-10-11T02:47:01.109Z,19.20
2022-10-11T02:49:32.048Z,17.50
2022-10-11T02:52:00.893Z,26.90
2022-10-11T02:54:43.308Z,24.90
2022-10-11T02:57:25.910Z,42.20
2022-10-11T02:59:54.819Z,21.80
2022-10-11T03:02:23.791Z,22.70
2022-10-11T03:04:52.792Z,17.70
2022-10-11T03:07:35.257Z,16.70
2022-10-11T03:10:17.831Z,21.60
2022-10-11T03:12:46.924Z,22.00
2022-10-11T03:15:15.983Z,24.00
2022-10-11T03:17:44.999Z,26.80
2022-10-11T03:20:28.155Z,21.30
2022-10-11T03:22:57.057Z,26.10
2022-10-11T03:25:25.962Z,25.00
2022-10-11T03:27:54.947Z,24.90
2022-10-11T03:30:24.317Z,27.40
2022-10-11T03:32:53.374Z,27.50
2022-10-11T03:35:22.504Z,30.60
2022-10-11T03:38:05.011Z,27.90
2022-10-11T03:40:47.785Z,28.30
2022-10-11T03:43:16.931Z,32.10
2022-10-11T03:45:45.995Z,35.50
2022-10-11T03:48:28.542Z,28.10
2022-10-11T03:50:57.601Z,31.60
2022-10-11T03:53:26.389Z,34.30
2022-10-11T03:56:10.051Z,32.10
2022-10-11T03:58:52.594Z,30.50
2022-10-11T04:01:21.650Z,32.40
2022-10-11T04:03:50.565Z,32.10
2022-10-11T04:06:19.559Z,31.40
2022-10-11T04:09:02.294Z,36.10
2022-10-11T04:11:31.225Z,26.40
2022-10-11T04:14:00.279Z,30.60
2022-10-11T04:16:43.242Z,37.10
2022-10-11T04:19:12.518Z,39.40
2022-10-11T04:21:41.365Z,34.00
2022-10-11T04:24:12.193Z,35.10
2022-10-11T04:26:54.869Z,31.80
2022-10-11T04:29:27.717Z,28.90
2022-10-11T04:32:14.072Z,30.90
2022-10-11T04:34:43.330Z,32.30
2022-10-11T04:37:12.265Z,28.80
2022-10-11T04:39:41.394Z,34.00
2022-10-11T04:42:10.232Z,33.90
2022-10-11T04:44:52.679Z,38.10
2022-10-11T04:47:21.603Z,29.80
2022-10-11T04:49:50.665Z,35.40
2022-10-11T04:52:32.977Z,33.50
2022-10-11T04:55:16.032Z,33.90
2022-10-11T04:57:45.028Z,27.10
2022-10-11T05:00:15.466Z,25.70
2022-10-11T05:02:44.348Z,37.20
2022-10-11T05:05:18.012Z,29.70
2022-10-11T05:08:01.099Z,32.90
2022-10-11T05:10:29.735Z,25.90
2022-10-11T05:12:58.896Z,34.20
2022-10-11T05:15:41.724Z,42.00
2022-10-11T05:18:10.424Z,31.60
2022-10-11T05:20:39.483Z,33.90
2022-10-11T05:23:08.922Z,31.00
2022-10-11T05:25:37.928Z,30.90
2022-10-11T05:28:07.331Z,33.10
2022-10-11T05:30:50.153Z,30.20
2022-10-11T05:33:32.812Z,36.00
2022-10-11T05:36:15.521Z,32.50
2022-10-11T05:38:45.263Z,30.70
2022-10-11T05:41:29.448Z,25.00
2022-10-11T05:43:58.210Z,27.90
2022-10-11T05:46:40.707Z,27.80
2022-10-11T05:49:09.658Z,25.50
2022-10-11T05:51:39.046Z,31.80
2022-10-11T05:54:08.393Z,33.90
2022-10-11T05:56:37.164Z,34.40
2022-10-11T05:59:19.495Z,31.50
2022-10-11T06:01:49.745Z,33.50
2022-10-11T06:04:36.433Z,27.90
2022-10-11T06:07:06.525Z,34.60
2022-10-11T06:09:36.059Z,27.70
2022-10-11T06:12:18.757Z,30.70
2022-10-11T06:14:47.877Z,31.10
2022-10-11T06:17:30.533Z,32.30
2022-10-11T06:19:59.509Z,29.70
2022-10-11T06:22:41.915Z,27.40
2022-10-11T06:25:24.329Z,24.60
2022-10-11T06:28:07.199Z,21.80
2022-10-11T06:30:36.052Z,27.20
2022-10-11T06:33:19.343Z,24.90
2022-10-11T06:35:48.558Z,27.70
2022-10-11T06:38:31.018Z,24.70
2022-10-11T06:41:18.421Z,25.60
2022-10-11T06:44:01.270Z,25.40
2022-10-11T06:46:33.512Z,19.80
2022-10-11T06:49:02.388Z,20.20
2022-10-11T06:51:44.771Z,22.80
2022-10-11T06:54:27.880Z,21.30
2022-10-11T06:56:57.098Z,23.20
2022-10-11T06:59:39.573Z,18.70
2022-10-11T07:02:10.798Z,14.50
2022-10-11T07:04:53.270Z,14.60
2022-10-11T07:07:35.571Z,20.30
2022-10-11T07:10:18.245Z,26.00
2022-10-11T07:13:00.783Z,17.30
2022-10-11T07:15:43.579Z,17.70
2022-10-11T07:18:12.521Z,25.10
2022-10-11T07:20:55.424Z,22.10
2022-10-11T07:23:38.490Z,21.90
2022-10-11T07:26:09.573Z,17.30
2022-10-11T07:28:52.622Z,21.40
2022-10-11T07:31:24.510Z,18.50
2022-10-11T07:33:54.769Z,18.70
2022-10-11T07:36:24.545Z,19.90
2022-10-11T07:38:53.543Z,19.70
2022-10-11T07:41:22.620Z,16.20
2022-10-11T07:44:05.331Z,31.10
2022-10-11T07:46:47.769Z,20.10
2022-10-11T07:49:17.395Z,17.10
2022-10-11T07:51:46.234Z,15.10
2022-10-11T07:54:28.550Z,18.50
2022-10-11T07:56:57.584Z,16.40
2022-10-11T07:59:26.535Z,15.30
2022-10-11T08:01:55.743Z,23.20
2022-10-11T08:04:24.398Z,17.20
2022-10-11T08:06:53.619Z,16.30
2022-10-11T08:09:36.215Z,13.80
2022-10-11T08:12:18.668Z,10.80
2022-10-11T08:14:47.650Z,18.90
2022-10-11T08:17:16.565Z,21.30
2022-10-11T08:19:45.483Z,20.40
2022-10-11T08:22:14.248Z,11.20
2022-10-11T08:24:43.544Z,15.70
2022-10-11T08:27:26.636Z,17.70
2022-10-11T08:30:10.126Z,15.50
2022-10-11T08:32:39.327Z,17.60
2022-10-11T08:35:22.066Z,18.10
2022-10-11T08:37:51.480Z,18.80
2022-10-11T08:40:35.379Z,13.00
2022-10-11T08:43:08.532Z,14.10
2022-10-11T08:45:54.864Z,22.70
2022-10-11T08:48:41.844Z,14.20
2022-10-11T08:51:30.841Z,16.40
2022-10-11T08:54:32.834Z,13.40
2022-10-11T08:57:06.075Z,21.20
2022-10-11T09:00:14.902Z,16.50
2022-10-11T09:03:13.175Z,17.20
2022-10-11T09:06:04.748Z,19.10
2022-10-11T09:09:07.961Z,17.10
2022-10-11T09:12:03.496Z,14.60
2022-10-11T09:14:54.351Z,12.70
2022-10-11T09:17:58.818Z,19.20
2022-10-11T09:20:53.333Z,13.90
2022-10-11T09:23:47.622Z,16.00
2022-10-11T09:26:25.680Z,12.40
2022-10-11T09:29:07.196Z,17.10
2022-10-11T09:31:36.392Z,13.30
2022-10-11T09:34:20.419Z,10.50
2022-10-11T09:37:15.028Z,10.20
2022-10-11T09:39:55.714Z,12.80
2022-10-11T09:42:24.863Z,15.30
2022-10-11T09:44:55.293Z,19.00
2022-10-11T09:47:27.552Z,9.90
2022-10-11T09:50:30.967Z,16.20
2022-10-11T09:53:08.046Z,13.30
2022-10-11T09:55:39.601Z,14.70
2022-10-11T09:58:32.425Z,12.00
2022-10-11T10:01:25.766Z,20.50
2022-10-11T10:04:17.149Z,15.30
2022-10-11T10:06:46.705Z,14.10
2022-10-11T10:09:31.103Z,10.80
2022-10-11T10:12:22.870Z,14.70
2022-10-11T10:15:02.529Z,16.80
2022-10-11T10:17:53.438Z,13.90
2022-10-11T10:20:36.955Z,20.00
2022-10-11T10:23:28.143Z,14.50
2022-10-11T10:26:20.928Z,13.50
2022-10-11T10:29:16.910Z,14.60
2022-10-11T10:32:14.181Z,17.60
2022-10-11T10:35:16.991Z,21.30
2022-10-11T10:37:59.685Z,23.90
2022-10-11T10:40:51.343Z,28.20
2022-10-11T10:43:24.320Z,21.00
2022-10-11T10:46:12.109Z,21.70
2022-10-11T10:49:18.714Z,18.30
2022-10-11T10:51:53.187Z,13.20
2022-10-11T10:54:39.110Z,14.90
2022-10-11T10:57:47.050Z,11.80
2022-10-11T11:02:51.578Z,13.60
2022-10-11T11:05:40.216Z,17.90
2022-10-11T11:08:38.052Z,17.10
2022-10-11T11:11:58.068Z,11.50
2022-10-11T11:14:46.394Z,15.00
2022-10-11T11:17:40.803Z,15.60
2022-10-11T11:20:42.445Z,10.90
2022-10-11T11:23:33.237Z,12.80
2022-10-11T11:26:10.019Z,31.70
2022-10-11T11:29:04.306Z,21.20
2022-10-11T11:34:47.076Z,11.70
2022-10-11T11:37:34.761Z,11.30
2022-10-11T11:40:23.098Z,12.30
2022-10-11T11:43:36.240Z,17.30
2022-10-11T11:46:29.150Z,11.70
2022-10-11T11:49:03.692Z,13.00
2022-10-11T11:51:47.703Z,18.20
2022-10-11T11:54:45.432Z,18.60
2022-10-11T11:57:26.626Z,13.90
2022-10-11T12:00:06.073Z,13.40
2022-10-11T12:02:40.396Z,14.70
2022-10-11T12:05:30.775Z,15.20
2022-10-11T12:08:18.984Z,14.40
2022-10-11T12:10:51.154Z,15.50
2022-10-11T12:13:39.977Z,14.20
2022-10-11T12:16:23.085Z,11.40
2022-10-11T12:19:06.112Z,10.70
2022-10-11T12:22:40.467Z,10.80
2022-10-11T12:25:09.579Z,15.20
2022-10-11T12:27:44.645Z,19.00
2022-10-11T12:30:51.006Z,9.90
2022-10-11T12:33:33.487Z,14.90
2022-10-11T12:36:22.177Z,17.70
2022-10-11T12:39:23.400Z,10.20
2022-10-11T12:42:06.032Z,19.80
2022-10-11T12:44:35.029Z,15.00
2022-10-11T12:47:48.367Z,16.20
2022-10-11T12:50:28.671Z,11.70
2022-10-11T12:53:36.898Z,12.90
2022-10-11T12:56:27.369Z,10.20
2022-10-11T12:59:06.554Z,10.20
2022-10-11T13:01:48.700Z,9.80
2022-10-11T13:04:21.894Z,6.30
2022-10-11T13:06:54.985Z,9.00
2022-10-11T13:09:32.648Z,9.10
2022-10-11T13:12:13.879Z,13.60
2022-10-11T13:15:07.167Z,10.20
2022-10-11T13:17:41.244Z,14.70
2022-10-11T13:20:31.746Z,11.20
2022-10-11T13:23:01.429Z,13.60
2022-10-11T13:25:38.228Z,16.60
2022-10-11T13:28:22.294Z,6.00
2022-10-11T13:30:56.827Z,22.30
2022-10-11T13:33:43.032Z,9.50
2022-10-11T13:36:20.829Z,13.50
2022-10-11T13:39:01.351Z,12.40
2022-10-11T13:41:43.853Z,12.50
2022-10-11T13:44:12.837Z,11.30
2022-10-11T13:46:42.592Z,14.90
2022-10-11T13:49:27.130Z,18.10
2022-10-11T13:52:02.573Z,13.00
2022-10-11T13:55:10.078Z,16.70
2022-10-11T13:57:46.789Z,12.10
2022-10-11T14:00:15.497Z,12.50
2022-10-11T14:02:51.347Z,12.00
2022-10-11T14:05:34.897Z,11.80
2022-10-11T14:11:06.623Z,7.60
2022-10-11T14:13:39.465Z,16.10
2022-10-11T14:16:21.796Z,11.00
2022-10-11T14:19:10.749Z,14.70
2022-10-11T14:21:54.426Z,12.60
2022-10-11T14:24:23.628Z,14.40
2022-10-11T14:26:54.950Z,13.60
2022-10-11T14:29:26.867Z,17.40
2022-10-11T14:32:03.374Z,11.00
2022-10-11T14:34:48.136Z,13.10
2022-10-11T14:37:18.510Z,17.20
2022-10-11T14:39:48.248Z,17.10
2022-10-11T14:42:18.067Z,10.10
2022-10-11T14:45:01.128Z,19.30
2022-10-11T14:47:29.990Z,19.00
2022-10-11T14:49:59.031Z,18.40
2022-10-11T14:52:28.323Z,13.20
2022-10-11T14:54:57.149Z,19.80
2022-10-11T14:57:39.434Z,16.50
2022-10-11T15:00:19.072Z,11.70
2022-10-11T15:02:47.622Z,18.20
2022-10-11T15:05:16.656Z,9.40
2022-10-11T15:07:45.560Z,13.10
2022-10-11T15:10:22.419Z,14.90
2022-10-11T15:12:52.953Z,12.90
2022-10-11T15:15:37.853Z,17.80
2022-10-11T15:18:08.425Z,13.00
2022-10-11T15:20:52.260Z,10.70
2022-10-11T15:23:20.995Z,17.30
2022-10-11T15:26:03.674Z,19.40
2022-10-11T15:28:48.052Z,19.20
2022-10-11T15:31:17.868Z,13.00
2022-10-11T15:33:46.701Z,19.30
2022-10-11T15:36:19.802Z,15.70
2022-10-11T15:39:02.155Z,18.10
2022-10-11T15:41:44.866Z,18.00
2022-10-11T15:44:13.658Z,16.70
2022-10-11T15:46:56.305Z,17.00
2022-10-11T15:49:25.073Z,20.70
2022-10-11T15:51:54.406Z,20.10
2022-10-11T15:54:36.708Z,16.30
2022-10-11T15:57:19.521Z,17.50
2022-10-11T16:00:02.386Z,15.00
2022-10-11T16:02:41.151Z,16.20
2022-10-11T16:05:25.915Z,12.30
2022-10-11T16:07:55.118Z,20.40
2022-10-11T16:10:24.310Z,14.30
2022-10-11T16:12:53.142Z,24.00
2022-10-11T16:15:38.939Z,18.60
2022-10-11T16:18:22.593Z,26.80
2022-10-11T16:20:52.654Z,23.80
2022-10-11T16:23:22.679Z,21.50
2022-10-11T16:25:59.348Z,18.80
2022-10-11T16:28:42.288Z,17.90
2022-10-11T16:31:14.945Z,25.20
2022-10-11T16:33:47.905Z,32.40
2022-10-11T16:36:41.023Z,35.50
2022-10-11T16:39:17.267Z,45.40
2022-10-11T16:41:47.504Z,23.70
2022-10-11T16:44:19.458Z,20.30
2022-10-11T16:46:49.291Z,25.20
2022-10-11T16:49:26.099Z,22.80
2022-10-11T16:51:59.447Z,19.50
2022-10-11T16:54:30.450Z,30.40
2022-10-11T16:57:00.030Z,22.30
2022-10-11T16:59:28.980Z,40.20
2022-10-11T17:01:58.322Z,26.00
2022-10-11T17:04:27.143Z,32.50
2022-10-11T17:06:56.705Z,33.10
2022-10-11T17:09:48.952Z,22.30
2022-10-11T17:12:32.261Z,22.20
2022-10-11T17:15:01.339Z,23.60
2022-10-11T17:17:43.667Z,28.10
2022-10-11T17:20:12.142Z,24.10
2022-10-11T17:22:41.092Z,24.00
2022-10-11T17:25:10.002Z,27.20
2022-10-11T17:27:38.954Z,36.30
2022-10-11T17:30:08.676Z,34.40
2022-10-11T17:32:53.059Z,30.80
2022-10-11T17:35:35.434Z,29.90
2022-10-11T17:38:20.198Z,31.40
2022-10-11T17:41:00.357Z,29.30
2022-10-11T17:43:43.005Z,32.00
2022-10-11T17:46:15.072Z,38.50
2022-10-11T17:48:46.111Z,29.90
2022-10-11T17:51:28.626Z,37.10
2022-10-11T17:53:57.837Z,36.70
2022-10-11T17:56:41.651Z,36.60
2022-10-11T17:59:27.695Z,34.70
2022-10-11T18:01:56.791Z,38.40
2022-10-11T18:04:29.566Z,29.90
2022-10-11T18:06:58.464Z,30.70
2022-10-11T18:09:27.558Z,35.50
2022-10-11T18:11:56.052Z,36.40
2022-10-11T18:14:24.949Z,32.60
2022-10-11T18:17:07.195Z,42.80
2022-10-11T18:19:49.690Z,45.00
2022-10-11T18:22:18.678Z,38.00
2022-10-11T18:24:48.410Z,38.10
2022-10-11T18:27:17.226Z,40.00
2022-10-11T18:29:45.883Z,49.30
2022-10-11T18:32:17.434Z,43.30
2022-10-11T18:34:46.617Z,46.50
2022-10-11T18:37:30.094Z,42.90
2022-10-11T18:39:58.922Z,36.20
2022-10-11T18:42:27.735Z,44.20
2022-10-11T18:44:57.266Z,61.60
2022-10-11T18:47:26.175Z,49.30
2022-10-11T18:49:55.238Z,51.40
2022-10-11T18:52:23.662Z,69.40
2022-10-11T18:54:52.351Z,60.00
2022-10-11T18:57:21.355Z,78.90
2022-10-11T18:59:50.849Z,61.10
2022-10-11T19:02:19.687Z,60.90
2022-10-11T19:04:52.934Z,52.20
2022-10-11T19:07:35.865Z,58.00
2022-10-11T19:10:05.054Z,59.40
2022-10-11T19:12:34.044Z,48.80
2022-10-11T19:15:02.726Z,48.30
2022-10-11T19:17:36.425Z,57.30
2022-10-11T19:20:09.230Z,46.20
2022-10-11T19:22:38.330Z,49.80
2022-10-11T19:25:07.859Z,49.50
2022-10-11T19:27:36.854Z,52.70
2022-10-11T19:30:06.350Z,38.30
2022-10-11T19:32:35.432Z,43.30
2022-10-11T19:35:04.531Z,42.20
2022-10-11T19:37:47.034Z,47.10
2022-10-11T19:40:16.157Z,52.20
2022-10-11T19:42:45.772Z,40.30
2022-10-11T19:45:14.460Z,51.20
2022-10-11T19:47:56.684Z,34.60
2022-10-11T19:50:25.279Z,42.20
2022-10-11T19:52:54.077Z,44.90
2022-10-11T19:55:23.018Z,42.60
2022-10-11T19:57:52.055Z,53.30
2022-10-11T20:00:21.149Z,39.90
2022-10-11T20:02:49.694Z,51.20
2022-10-11T20:05:18.253Z,37.30
2022-10-11T20:07:47.002Z,48.40
2022-10-11T20:10:15.558Z,54.70
2022-10-11T20:12:57.935Z,52.50
2022-10-11T20:15:26.701Z,58.60
2022-10-11T20:17:55.212Z,42.10
2022-10-11T20:20:24.095Z,43.50
2022-10-11T20:22:53.855Z,49.10
2022-10-11T20:25:22.578Z,46.80
2022-10-11T20:27:51.095Z,42.70
2022-10-11T20:30:20.065Z,49.60
2022-10-11T20:32:48.700Z,50.10
2022-10-11T20:35:31.523Z,54.80
2022-10-11T20:38:00.124Z,54.70
2022-10-11T20:40:28.899Z,47.40
2022-10-11T20:42:57.606Z,55.80
2022-10-11T20:45:26.457Z,49.00
2022-10-11T20:47:54.930Z,48.70
2022-10-11T20:50:23.662Z,40.20
2022-10-11T20:53:06.034Z,46.10
2022-10-11T20:55:34.677Z,44.20
2022-10-11T20:58:03.276Z,43.70
2022-10-11T21:00:31.901Z,41.70
2022-10-11T21:03:00.467Z,54.70
2022-10-11T21:05:29.589Z,46.90
2022-10-11T21:07:58.385Z,46.60
2022-10-11T21:10:28.180Z,56.60
2022-10-11T21:12:57.082Z,44.60
2022-10-11T21:15:26.343Z,54.60
2022-10-11T21:18:08.625Z,39.00
2022-10-11T21:20:51.423Z,44.00
2022-10-11T21:23:20.409Z,47.00
2022-10-11T21:26:04.521Z,48.50
2022-10-11T21:28:49.187Z,38.80
2022-10-11T21:31:20.371Z,41.40
2022-10-11T21:34:05.443Z,46.00
2022-10-11T21:36:33.980Z,41.70
2022-10-11T21:39:03.173Z,42.20
2022-10-11T21:41:32.418Z,42.60
2022-10-11T21:44:01.625Z,43.10
2022-10-11T21:49:32.805Z,44.90
2022-10-11T21:52:15.128Z,36.90
2022-10-11T21:54:57.765Z,43.10
2022-10-11T21:57:43.116Z,53.50
2022-10-11T22:00:13.395Z,51.30
2022-10-11T22:02:42.051Z,40.60
2022-10-11T22:05:10.981Z,44.30
2022-10-11T22:07:54.192Z,42.90
2022-10-11T22:10:22.906Z,47.20
2022-10-11T22:12:51.692Z,47.40
2022-10-11T22:15:35.240Z,44.20
2022-10-11T22:18:04.531Z,40.10
2022-10-11T22:20:33.660Z,42.80
2022-10-11T22:23:02.615Z,38.50
2022-10-11T22:25:34.465Z,52.40
2022-10-11T22:28:16.948Z,38.70
2022-10-11T22:30:59.380Z,40.90
2022-10-11T22:33:29.304Z,35.10
2022-10-11T22:36:00.454Z,55.20
2022-10-11T22:38:30.071Z,42.20
2022-10-11T22:41:13.031Z,40.40
2022-10-11T22:43:55.360Z,45.60
2022-10-11T22:46:24.153Z,39.80
2022-10-11T22:49:06.578Z,40.70
2022-10-11T22:51:35.298Z,48.20
2022-10-11T22:54:04.966Z,45.00
2022-10-11T22:56:47.387Z,45.80
2022-10-11T22:59:16.343Z,36.10
2022-10-11T23:01:45.229Z,48.80
2022-10-11T23:04:27.595Z,45.50
2022-10-11T23:06:57.781Z,47.80
2022-10-11T23:09:41.634Z,35.80
2022-10-11T23:12:10.760Z,36.60
2022-10-11T23:14:53.233Z,43.40
2022-10-11T23:17:35.863Z,35.80
2022-10-11T23:20:07.150Z,34.80
2022-10-11T23:22:49.505Z,38.50
2022-10-11T23:25:31.973Z,36.00
2022-10-11T23:28:02.426Z,40.50
2022-10-11T23:30:31.431Z,35.80
2022-10-11T23:33:00.386Z,33.70
2022-10-11T23:35:29.201Z,33.40
2022-10-11T23:38:11.540Z,44.10
2022-10-11T23:40:53.911Z,33.50
2022-10-11T23:43:36.339Z,37.90
2022-10-11T23:46:18.748Z,37.10
2022-10-11T23:48:47.964Z,30.30
2022-10-11T23:51:30.707Z,31.70
2022-10-11T23:54:13.160Z,42.10
2022-10-11T23:56:41.893Z,33.60
2022-10-11T23:59:24.247Z,31.90
